Time,TemperatureF,DewpointF,PressureIn,WindDirection,WindDirectionDegrees,WindSpeedMPH,WindSpeedGustMPH,Humidity,HourlyPrecipIn,Conditions,Clouds,dailyrainin,SoftwareType,DateUTC
2013-01-23 00:03:00,8.0,1.0,30.04,West,262,0.0,3.0,72,0.00,,,0.00,,2013-01-23 05:03:00,
2013-01-23 00:12:00,8.0,1.0,30.04,West,262,0.0,3.0,72,0.00,,,0.00,,2013-01-23 05:12:00,
2013-01-23 00:22:00,8.0,1.0,30.04,WSW,249,1.0,4.0,73,0.00,,,0.00,,2013-01-23 05:22:00,
2013-01-23 00:33:00,8.0,1.0,30.04,West,259,1.0,3.0,73,0.00,,,0.00,,2013-01-23 05:33:00,
2013-01-23 00:43:00,8.0,1.0,30.04,West,259,1.0,3.0,73,0.00,,,0.00,,2013-01-23 05:43:00,
2013-01-23 00:52:00,8.0,1.0,30.04,West,269,1.0,4.0,72,0.00,,,0.00,,2013-01-23 05:52:00,
2013-01-23 01:03:00,8.0,0.0,30.03,WNW,283,2.0,4.0,69,0.00,,,0.00,,2013-01-23 06:03:00,
2013-01-23 01:12:00,8.0,0.0,30.03,WNW,283,2.0,4.0,69,0.00,,,0.00,,2013-01-23 06:12:00,
2013-01-23 01:22:00,8.0,-1.0,30.03,West,270,2.0,8.0,65,0.00,,,0.00,,2013-01-23 06:22:00,
2013-01-23 01:33:00,9.0,-2.0,30.04,West,274,2.0,6.0,60,0.00,,,0.00,,2013-01-23 06:33:00,
2013-01-23 01:43:00,9.0,-2.0,30.04,West,274,2.0,6.0,60,0.00,,,0.00,,2013-01-23 06:43:00,
2013-01-23 01:52:00,9.0,-3.0,30.04,West,275,2.0,10.0,58,0.00,,,0.00,,2013-01-23 06:52:00,
2013-01-23 02:02:00,8.0,-3.0,30.04,West,276,0.0,2.0,59,0.00,,,0.00,,2013-01-23 07:02:00,
2013-01-23 02:13:00,8.0,-3.0,30.04,West,276,0.0,2.0,59,0.00,,,0.00,,2013-01-23 07:13:00,
2013-01-23 02:22:00,8.0,-2.0,30.04,West,268,0.0,6.0,62,0.00,,,0.00,,2013-01-23 07:22:00,
2013-01-23 02:33:00,7.0,-3.0,30.05,WSW,247,1.0,5.0,62,0.00,,,0.00,,2013-01-23 07:33:00,
2013-01-23 02:42:00,7.0,-3.0,30.05,WSW,247,1.0,5.0,62,0.00,,,0.00,,2013-01-23 07:42:00,
2013-01-23 02:52:00,7.0,-4.0,30.05,West,260,1.0,5.0,61,0.00,,,0.00,,2013-01-23 07:52:00,
2013-01-23 03:02:00,8.0,-4.0,30.04,West,259,1.0,5.0,58,0.00,,,0.00,,2013-01-23 08:02:00,
2013-01-23 03:13:00,8.0,-4.0,30.04,West,259,1.0,5.0,58,0.00,,,0.00,,2013-01-23 08:13:00,
2013-01-23 03:22:00,8.0,-4.0,30.04,WSW,257,2.0,9.0,57,0.00,,,0.00,,2013-01-23 08:22:00,
2013-01-23 03:33:00,8.0,-4.0,30.05,West,271,3.0,7.0,57,0.00,,,0.00,,2013-01-23 08:33:00,
2013-01-23 03:43:00,8.0,-4.0,30.05,West,271,3.0,7.0,57,0.00,,,0.00,,2013-01-23 08:43:00,
2013-01-23 03:52:00,8.0,-4.0,30.05,WSW,256,3.0,10.0,56,0.00,,,0.00,,2013-01-23 08:52:00,
2013-01-23 04:03:00,8.0,-3.0,30.05,West,274,2.0,7.0,59,0.00,,,0.00,,2013-01-23 09:03:00,
2013-01-23 04:12:00,8.0,-3.0,30.05,West,274,2.0,7.0,59,0.00,,,0.00,,2013-01-23 09:12:00,
2013-01-23 04:22:00,8.0,-3.0,30.05,West,274,2.0,6.0,61,0.00,,,0.00,,2013-01-23 09:22:00,
2013-01-23 04:33:00,8.0,-3.0,30.05,West,274,2.0,6.0,61,0.00,,,0.00,,2013-01-23 09:33:00,
2013-01-23 04:43:00,8.0,-3.0,30.05,West,274,2.0,6.0,61,0.00,,,0.00,,2013-01-23 09:43:00,
2013-01-23 04:52:00,8.0,-4.0,30.06,WSW,246,1.0,4.0,58,0.00,,,0.00,,2013-01-23 09:52:00,
2013-01-23 05:03:00,7.0,-6.0,30.06,West,272,4.0,9.0,53,0.00,,,0.00,,2013-01-23 10:03:00,
2013-01-23 05:12:00,7.0,-6.0,30.06,West,272,4.0,9.0,53,0.00,,,0.00,,2013-01-23 10:12:00,
2013-01-23 05:23:00,8.0,-7.0,30.06,West,275,5.0,12.0,49,0.00,,,0.00,,2013-01-23 10:23:00,
2013-01-23 05:33:00,8.0,-8.0,30.07,West,273,4.0,10.0,46,0.00,,,0.00,,2013-01-23 10:33:00,
2013-01-23 05:43:00,8.0,-8.0,30.07,West,273,4.0,10.0,46,0.00,,,0.00,,2013-01-23 10:43:00,
2013-01-23 05:52:00,8.0,-8.0,30.07,West,281,4.0,11.0,46,0.00,,,0.00,,2013-01-23 10:52:00,
2013-01-23 06:03:00,8.0,-9.0,30.08,West,281,4.0,12.0,45,0.00,,,0.00,,2013-01-23 11:03:00,
2013-01-23 06:12:00,8.0,-9.0,30.08,West,281,4.0,12.0,45,0.00,,,0.00,,2013-01-23 11:12:00,
2013-01-23 06:23:00,8.0,-9.0,30.08,West,281,5.0,13.0,44,0.00,,,0.00,,2013-01-23 11:23:00,
2013-01-23 06:33:00,7.0,-11.0,30.09,West,274,4.0,12.0,42,0.00,,,0.00,,2013-01-23 11:33:00,
2013-01-23 06:43:00,7.0,-11.0,30.09,West,274,4.0,12.0,42,0.00,,,0.00,,2013-01-23 11:43:00,
2013-01-23 06:53:00,7.0,-11.0,30.09,WNW,288,4.0,9.0,43,0.00,,,0.00,,2013-01-23 11:53:00,
2013-01-23 07:03:00,7.0,-10.0,30.09,WNW,292,2.0,6.0,45,0.00,,,0.00,,2013-01-23 12:03:00,
2013-01-23 07:13:00,7.0,-10.0,30.09,WNW,292,2.0,6.0,45,0.00,,,0.00,,2013-01-23 12:13:00,
2013-01-23 07:22:00,6.0,-11.0,30.09,WNW,292,1.0,4.0,44,0.00,,,0.00,,2013-01-23 12:22:00,
2013-01-23 07:33:00,5.0,-8.0,30.10,North,0,0.0,0.0,53,0.00,,,0.00,,2013-01-23 12:33:00,
2013-01-23 07:43:00,5.0,-8.0,30.10,North,0,0.0,0.0,53,0.00,,,0.00,,2013-01-23 12:43:00,
2013-01-23 07:53:00,4.0,-7.0,30.10,North,0,0.0,0.0,59,0.00,,,0.00,,2013-01-23 12:53:00,
2013-01-23 08:04:00,3.0,-7.0,30.10,WNW,296,0.0,3.0,61,0.00,,,0.00,,2013-01-23 13:04:00,
2013-01-23 08:13:00,3.0,-7.0,30.10,WNW,296,0.0,3.0,61,0.00,,,0.00,,2013-01-23 13:13:00,
2013-01-23 08:23:00,4.0,-9.0,30.11,WNW,301,1.0,8.0,55,0.00,,,0.00,,2013-01-23 13:23:00,
2013-01-23 08:33:00,6.0,-9.0,30.12,WNW,289,3.0,9.0,48,0.00,,,0.00,,2013-01-23 13:33:00,
2013-01-23 08:43:00,6.0,-9.0,30.12,WNW,289,3.0,9.0,48,0.00,,,0.00,,2013-01-23 13:43:00,
2013-01-23 08:52:00,6.0,-10.0,30.11,WNW,285,4.0,9.0,46,0.00,,,0.00,,2013-01-23 13:52:00,
2013-01-23 09:03:00,7.0,-10.0,30.12,West,278,3.0,7.0,44,0.00,,,0.00,,2013-01-23 14:03:00,
2013-01-23 09:12:00,7.0,-10.0,30.12,West,278,3.0,7.0,44,0.00,,,0.00,,2013-01-23 14:12:00,
2013-01-23 09:23:00,7.0,-10.0,30.12,WNW,284,4.0,9.0,44,0.00,,,0.00,,2013-01-23 14:23:00,
2013-01-23 09:33:00,8.0,-10.0,30.12,WNW,295,4.0,10.0,42,0.00,,,0.00,,2013-01-23 14:33:00,
2013-01-23 09:43:00,8.0,-10.0,30.12,WNW,295,4.0,10.0,42,0.00,,,0.00,,2013-01-23 14:43:00,
2013-01-23 09:53:00,9.0,-8.0,30.12,West,279,7.0,13.0,46,0.00,,,0.00,,2013-01-23 14:53:00,
2013-01-23 10:03:00,10.0,-11.0,30.11,WNW,285,9.0,22.0,37,0.00,,,0.00,,2013-01-23 15:03:00,
2013-01-23 10:13:00,10.0,-11.0,30.11,WNW,285,9.0,22.0,37,0.00,,,0.00,,2013-01-23 15:13:00,
2013-01-23 10:23:00,10.0,-11.0,30.12,WNW,287,9.0,19.0,37,0.00,,,0.00,,2013-01-23 15:23:00,
2013-01-23 10:33:00,10.0,-12.0,30.12,West,271,7.0,18.0,36,0.00,,,0.00,,2013-01-23 15:33:00,
2013-01-23 10:43:00,10.0,-12.0,30.12,West,271,7.0,18.0,36,0.00,,,0.00,,2013-01-23 15:43:00,
2013-01-23 10:53:00,11.0,-11.0,30.11,WNW,293,8.0,22.0,36,0.00,,,0.00,,2013-01-23 15:53:00,
2013-01-23 11:03:00,11.0,-11.0,30.11,WNW,286,9.0,24.0,35,0.00,,,0.00,,2013-01-23 16:03:00,
2013-01-23 11:12:00,11.0,-11.0,30.11,WNW,286,9.0,24.0,35,0.00,,,0.00,,2013-01-23 16:12:00,
2013-01-23 11:23:00,11.0,-12.0,30.10,WNW,295,9.0,21.0,34,0.00,,,0.00,,2013-01-23 16:23:00,
2013-01-23 11:33:00,12.0,-10.0,30.09,WNW,289,8.0,17.0,35,0.00,,,0.00,,2013-01-23 16:33:00,
2013-01-23 11:42:00,12.0,-10.0,30.09,WNW,289,8.0,17.0,35,0.00,,,0.00,,2013-01-23 16:42:00,
2013-01-23 11:52:00,12.0,-12.0,30.09,WNW,295,8.0,18.0,33,0.00,,,0.00,,2013-01-23 16:52:00,
2013-01-23 12:03:00,12.0,-12.0,30.08,WNW,286,8.0,17.0,32,0.00,,,0.00,,2013-01-23 17:03:00,
2013-01-23 12:12:00,12.0,-12.0,30.08,WNW,286,8.0,17.0,32,0.00,,,0.00,,2013-01-23 17:12:00,
2013-01-23 12:23:00,12.0,-12.0,30.07,WNW,298,7.0,16.0,32,0.00,,,0.00,,2013-01-23 17:23:00,
2013-01-23 12:33:00,13.0,-11.0,30.06,West,281,7.0,15.0,33,0.00,,,0.00,,2013-01-23 17:33:00,
2013-01-23 12:43:00,13.0,-11.0,30.06,West,281,7.0,15.0,33,0.00,,,0.00,,2013-01-23 17:43:00,
2013-01-23 12:52:00,13.0,-12.0,30.06,WNW,296,7.0,18.0,31,0.00,,,0.00,,2013-01-23 17:52:00,
2013-01-23 13:03:00,13.0,-12.0,30.05,WNW,289,8.0,20.0,31,0.00,,,0.00,,2013-01-23 18:03:00,
2013-01-23 13:12:00,13.0,-12.0,30.05,WNW,289,8.0,20.0,31,0.00,,,0.00,,2013-01-23 18:12:00,
2013-01-23 13:23:00,13.0,-12.0,30.05,West,276,7.0,18.0,31,0.00,,,0.00,,2013-01-23 18:23:00,
2013-01-23 13:33:00,13.0,-12.0,30.05,West,276,7.0,18.0,31,0.00,,,0.00,,2013-01-23 18:33:00,
2013-01-23 13:43:00,14.0,-11.0,30.05,WNW,287,6.0,14.0,31,0.00,,,0.00,,2013-01-23 18:43:00,
2013-01-23 13:53:00,14.0,-12.0,30.04,WNW,295,7.0,12.0,29,0.00,,,0.00,,2013-01-23 18:53:00,
2013-01-23 14:03:00,14.0,-12.0,30.05,WNW,289,8.0,16.0,29,0.00,,,0.00,,2013-01-23 19:03:00,
2013-01-23 14:13:00,14.0,-12.0,30.05,WNW,289,8.0,16.0,29,0.00,,,0.00,,2013-01-23 19:13:00,
2013-01-23 14:23:00,14.0,-13.0,30.05,WNW,293,6.0,13.0,28,0.00,,,0.00,,2013-01-23 19:23:00,
2013-01-23 14:33:00,14.0,-11.0,30.05,WNW,295,7.0,16.0,31,0.00,,,0.00,,2013-01-23 19:33:00,
2013-01-23 14:43:00,14.0,-11.0,30.05,WNW,295,7.0,16.0,31,0.00,,,0.00,,2013-01-23 19:43:00,
2013-01-23 14:53:00,14.0,-12.0,30.05,WNW,292,7.0,17.0,29,0.00,,,0.00,,2013-01-23 19:53:00,
2013-01-23 15:03:00,13.0,-13.0,30.06,WNW,286,7.0,16.0,29,0.00,,,0.00,,2013-01-23 20:03:00,
2013-01-23 15:13:00,13.0,-13.0,30.06,WNW,286,7.0,16.0,29,0.00,,,0.00,,2013-01-23 20:13:00,
2013-01-23 15:23:00,13.0,-14.0,30.06,WNW,288,7.0,14.0,28,0.00,,,0.00,,2013-01-23 20:23:00,
2013-01-23 15:33:00,13.0,-13.0,30.07,West,281,5.0,13.0,30,0.00,,,0.00,,2013-01-23 20:33:00,
2013-01-23 15:43:00,13.0,-13.0,30.07,West,281,5.0,13.0,30,0.00,,,0.00,,2013-01-23 20:43:00,
2013-01-23 15:53:00,13.0,-13.0,30.07,WNW,284,5.0,12.0,30,0.00,,,0.00,,2013-01-23 20:53:00,
2013-01-23 16:03:00,12.0,-13.0,30.07,NW,307,5.0,13.0,31,0.00,,,0.00,,2013-01-23 21:03:00,
2013-01-23 16:12:00,12.0,-13.0,30.07,NW,307,5.0,13.0,31,0.00,,,0.00,,2013-01-23 21:12:00,
2013-01-23 16:23:00,12.0,-12.0,30.08,WNW,295,6.0,13.0,32,0.00,,,0.00,,2013-01-23 21:23:00,
2013-01-23 16:33:00,11.0,-13.0,30.08,WNW,286,6.0,14.0,32,0.00,,,0.00,,2013-01-23 21:33:00,
2013-01-23 16:43:00,11.0,-13.0,30.08,WNW,286,6.0,14.0,32,0.00,,,0.00,,2013-01-23 21:43:00,
2013-01-23 16:52:00,11.0,-12.0,30.07,WNW,290,4.0,13.0,33,0.00,,,0.00,,2013-01-23 21:52:00,
2013-01-23 17:03:00,11.0,-12.0,30.07,WNW,297,3.0,15.0,33,0.00,,,0.00,,2013-01-23 22:03:00,
2013-01-23 17:13:00,11.0,-12.0,30.07,WNW,297,3.0,15.0,33,0.00,,,0.00,,2013-01-23 22:13:00,
2013-01-23 17:23:00,10.0,-13.0,30.08,NW,322,1.0,4.0,33,0.00,,,0.00,,2013-01-23 22:23:00,
2013-01-23 17:33:00,9.0,-11.0,30.07,NW,312,1.0,4.0,38,0.00,,,0.00,,2013-01-23 22:33:00,
2013-01-23 17:43:00,9.0,-11.0,30.07,NW,312,1.0,4.0,38,0.00,,,0.00,,2013-01-23 22:43:00,
2013-01-23 17:53:00,9.0,-12.0,30.07,NNW,336,1.0,5.0,36,0.00,,,0.00,,2013-01-23 22:53:00,
2013-01-23 18:03:00,8.0,-13.0,30.08,WNW,296,0.0,2.0,36,0.00,,,0.00,,2013-01-23 23:03:00,
2013-01-23 18:13:00,8.0,-13.0,30.08,WNW,296,0.0,2.0,36,0.00,,,0.00,,2013-01-23 23:13:00,
2013-01-23 18:23:00,8.0,-12.0,30.08,WNW,292,0.0,1.0,38,0.00,,,0.00,,2013-01-23 23:23:00,
2013-01-23 18:33:00,7.0,-9.0,30.09,North,0,0.0,0.0,47,0.00,,,0.00,,2013-01-23 23:33:00,
2013-01-23 18:43:00,7.0,-9.0,30.09,North,0,0.0,0.0,47,0.00,,,0.00,,2013-01-23 23:43:00,
2013-01-23 18:53:00,6.0,-9.0,30.09,WNW,300,0.0,2.0,50,0.00,,,0.00,,2013-01-23 23:53:00,
2013-01-23 19:03:00,5.0,-7.0,30.09,WNW,292,0.0,1.0,57,0.00,,,0.00,,2013-01-24 00:03:00,
2013-01-23 19:12:00,5.0,-7.0,30.09,WNW,292,0.0,1.0,57,0.00,,,0.00,,2013-01-24 00:12:00,
2013-01-23 19:22:00,4.0,-9.0,30.09,WNW,292,0.0,2.0,53,0.00,,,0.00,,2013-01-24 00:22:00,
2013-01-23 19:33:00,4.0,-8.0,30.09,North,0,0.0,0.0,56,0.00,,,0.00,,2013-01-24 00:33:00,
2013-01-23 19:43:00,4.0,-8.0,30.09,North,0,0.0,0.0,56,0.00,,,0.00,,2013-01-24 00:43:00,
2013-01-23 19:53:00,4.0,-8.0,30.09,North,0,0.0,0.0,56,0.00,,,0.00,,2013-01-24 00:53:00,
2013-01-23 20:03:00,3.0,-9.0,30.09,North,0,0.0,0.0,56,0.00,,,0.00,,2013-01-24 01:03:00,
2013-01-23 20:12:00,3.0,-9.0,30.09,North,0,0.0,0.0,56,0.00,,,0.00,,2013-01-24 01:12:00,
2013-01-23 20:23:00,3.0,-8.0,30.09,North,0,0.0,0.0,58,0.00,,,0.00,,2013-01-24 01:23:00,
2013-01-23 20:33:00,2.0,-7.0,30.09,North,0,0.0,0.0,64,0.00,,,0.00,,2013-01-24 01:33:00,
2013-01-23 20:43:00,2.0,-7.0,30.09,North,0,0.0,0.0,64,0.00,,,0.00,,2013-01-24 01:43:00,
2013-01-23 20:52:00,2.0,-7.0,30.09,North,0,0.0,0.0,64,0.00,,,0.00,,2013-01-24 01:52:00,
2013-01-23 21:03:00,1.0,-9.0,30.10,North,0,0.0,0.0,63,0.00,,,0.00,,2013-01-24 02:03:00,
2013-01-23 21:12:00,1.0,-9.0,30.10,North,0,0.0,0.0,63,0.00,,,0.00,,2013-01-24 02:12:00,
2013-01-23 21:20:00,0.0,-8.0,30.10,North,0,0.0,0.0,69,0.00,,,0.00,,2013-01-24 02:20:00,
2013-01-23 21:22:00,1.0,-9.0,30.10,North,0,0.0,0.0,63,0.00,,,0.00,,2013-01-24 02:22:00,
2013-01-23 21:33:00,0.0,-8.0,30.10,North,0,0.0,0.0,69,0.00,,,0.00,,2013-01-24 02:33:00,
2013-01-23 21:42:00,0.0,-8.0,30.10,North,0,0.0,0.0,69,0.00,,,0.00,,2013-01-24 02:42:00,
2013-01-23 21:52:00,0.0,-8.0,30.10,North,0,0.0,0.0,69,0.00,,,0.00,,2013-01-24 02:52:00,
2013-01-23 22:03:00,0.0,-8.0,30.10,North,0,0.0,0.0,69,0.00,,,0.00,,2013-01-24 03:03:00,
2013-01-23 22:12:00,0.0,-8.0,30.10,North,0,0.0,0.0,69,0.00,,,0.00,,2013-01-24 03:12:00,
2013-01-23 23:03:00,-1.0,-8.0,30.10,West,269,1.0,5.0,72,0.00,,,0.00,,2013-01-24 04:03:00,
2013-01-23 23:12:00,-1.0,-8.0,30.10,West,269,1.0,5.0,72,0.00,,,0.00,,2013-01-24 04:12:00,
2013-01-23 23:22:00,0.0,-9.0,30.10,West,276,1.0,4.0,66,0.00,,,0.00,,2013-01-24 04:22:00,
2013-01-23 23:33:00,1.0,-10.0,30.10,West,275,1.0,8.0,60,0.00,,,0.00,,2013-01-24 04:33:00,
2013-01-23 23:42:00,1.0,-10.0,30.10,West,275,1.0,8.0,60,0.00,,,0.00,,2013-01-24 04:42:00,
2013-01-23 23:53:00,2.0,-7.0,30.11,WNW,301,0.0,3.0,66,0.00,,,0.00,,2013-01-24 04:53:00,